createdAt,value
2019-01-12T00:01:00.411Z,69.20
2019-01-12T00:03:51.376Z,69.00
2019-01-12T00:06:32.795Z,69.00
2019-01-12T00:09:24.717Z,69.00
2019-01-12T00:12:07.991Z,68.60
2019-01-12T00:14:59.933Z,68.50
2019-01-12T00:17:42.067Z,68.70
2019-01-12T00:20:34.215Z,68.30
2019-01-12T00:23:19.332Z,67.30
2019-01-12T00:26:01.879Z,67.10
2019-01-12T00:28:46.544Z,66.60
2019-01-12T00:31:38.446Z,66.70
2019-01-12T00:34:22.768Z,66.40
2019-01-12T00:37:05.571Z,65.80
2019-01-12T00:39:58.409Z,65.50
2019-01-12T00:42:40.479Z,65.20
2019-01-12T00:45:25.059Z,64.50
2019-01-12T00:48:16.771Z,64.80
2019-01-12T00:50:59.717Z,64.50
2019-01-12T00:53:43.090Z,64.20
2019-01-12T00:56:34.010Z,65.00
2019-01-12T00:59:15.686Z,65.10
2019-01-12T01:02:06.601Z,64.40
2019-01-12T01:04:48.308Z,64.60
2019-01-12T01:07:39.538Z,65.00
2019-01-12T01:10:22.303Z,65.00
2019-01-12T01:13:13.257Z,65.10
2019-01-12T01:15:55.122Z,65.90
2019-01-12T01:18:36.711Z,66.50
2019-01-12T01:21:27.623Z,66.80
2019-01-12T01:24:09.308Z,67.30
2019-01-12T01:26:51.308Z,68.20
2019-01-12T01:29:42.257Z,68.80
2019-01-12T01:32:25.732Z,69.60
2019-01-12T01:35:16.722Z,70.10
2019-01-12T01:37:58.154Z,70.30
2019-01-12T01:40:49.076Z,70.40
2019-01-12T01:43:36.687Z,70.00
2019-01-12T01:46:27.605Z,69.20
2019-01-12T01:49:09.197Z,69.10
2019-01-12T01:52:00.114Z,68.70
2019-01-12T01:54:43.655Z,68.30
2019-01-12T01:57:34.571Z,68.30
2019-01-12T02:00:18.022Z,67.50
2019-01-12T02:03:08.950Z,67.20
2019-01-12T02:05:52.427Z,66.90
2019-01-12T02:08:43.419Z,66.40
2019-01-12T02:11:25.064Z,66.20
2019-01-12T02:14:16.027Z,65.80
2019-01-12T02:16:57.628Z,66.00
2019-01-12T02:19:48.578Z,65.30
2019-01-12T02:22:30.091Z,65.30
2019-01-12T02:25:21.060Z,65.40
2019-01-12T02:28:04.384Z,65.40
2019-01-12T02:30:55.333Z,65.60
2019-01-12T02:33:37.001Z,66.20
2019-01-12T02:36:27.960Z,66.80
2019-01-12T02:39:09.569Z,66.70
2019-01-12T02:42:00.568Z,66.50
2019-01-12T02:44:43.889Z,66.40
2019-01-12T02:47:34.858Z,65.30
2019-01-12T02:50:16.250Z,65.20
2019-01-12T02:53:07.227Z,65.10
2019-01-12T02:55:49.208Z,65.60
2019-01-12T02:58:51.671Z,65.40
2019-01-12T03:01:42.206Z,65.40
2019-01-12T03:04:33.133Z,66.30
2019-01-12T03:07:14.974Z,66.60
2019-01-12T03:10:07.304Z,66.40
2019-01-12T03:12:48.641Z,66.10
2019-01-12T03:15:39.595Z,66.30
2019-01-12T03:18:22.905Z,66.30
2019-01-12T03:21:04.878Z,66.00
2019-01-12T03:23:46.459Z,65.70
2019-01-12T03:26:28.177Z,66.00
2019-01-12T03:29:19.099Z,65.70
2019-01-12T03:32:02.353Z,66.00
2019-01-12T03:34:53.268Z,66.20
2019-01-12T03:37:35.009Z,66.00
2019-01-12T03:40:25.959Z,65.70
2019-01-12T03:43:09.376Z,65.00
2019-01-12T03:45:52.639Z,64.90
2019-01-12T03:48:43.556Z,65.20
2019-01-12T03:51:25.280Z,64.80
2019-01-12T03:54:16.207Z,64.60
2019-01-12T03:56:57.640Z,64.50
2019-01-12T03:59:48.575Z,64.20
2019-01-12T04:02:30.319Z,64.20
2019-01-12T04:05:21.307Z,64.40
2019-01-12T04:08:02.978Z,63.80
2019-01-12T04:10:53.893Z,63.40
2019-01-12T04:13:37.108Z,63.90
2019-01-12T04:16:28.037Z,64.30
2019-01-12T04:19:11.215Z,64.40
2019-01-12T04:21:54.705Z,63.60
2019-01-12T04:24:36.467Z,63.80
2019-01-12T04:27:18.318Z,63.40
2019-01-12T04:30:12.360Z,63.20
2019-01-12T04:32:54.313Z,63.40
2019-01-12T04:39:29.492Z,64.20
2019-01-12T04:42:07.386Z,64.10
2019-01-12T04:44:58.310Z,64.00
2019-01-12T04:47:42.238Z,64.40
2019-01-12T04:57:42.702Z,64.60
2019-01-12T05:00:05.741Z,65.20
2019-01-12T05:02:56.694Z,65.30
2019-01-12T05:05:40.239Z,65.40
2019-01-12T05:08:31.200Z,65.40
2019-01-12T05:11:12.514Z,66.30
2019-01-12T05:14:03.464Z,67.80
2019-01-12T05:16:45.314Z,68.60
2019-01-12T05:19:36.278Z,69.20
2019-01-12T05:22:18.105Z,68.70
2019-01-12T05:25:09.011Z,68.40
2019-01-12T05:27:50.987Z,68.20
2019-01-12T05:30:41.950Z,67.80
2019-01-12T05:33:23.798Z,67.00
2019-01-12T05:36:14.758Z,67.00
2019-01-12T05:38:57.833Z,67.20
2019-01-12T05:41:48.759Z,68.10
2019-01-12T05:44:20.654Z,67.10
2019-01-12T05:47:11.573Z,66.80
2019-01-12T05:49:54.258Z,66.60
2019-01-12T05:52:45.201Z,66.30
2019-01-12T05:55:26.849Z,66.10
2019-01-12T06:01:19.820Z,67.30
2019-01-12T06:04:30.483Z,67.10
2019-01-12T06:07:57.665Z,67.20
2019-01-12T06:15:19.898Z,67.00
2019-01-12T06:18:10.826Z,67.50
2019-01-12T06:20:52.614Z,67.70
2019-01-12T06:23:43.563Z,67.40
2019-01-12T06:26:27.048Z,67.70
2019-01-12T06:29:17.996Z,67.80
2019-01-12T06:31:59.776Z,67.40
2019-01-12T06:34:50.729Z,67.30
2019-01-12T06:37:34.298Z,67.30
2019-01-12T06:40:25.242Z,67.30
2019-01-12T06:43:25.752Z,66.50
2019-01-12T06:46:16.712Z,66.00
2019-01-12T06:48:58.174Z,65.90
2019-01-12T06:51:49.094Z,65.60
2019-01-12T06:54:30.446Z,65.40
2019-01-12T06:57:21.360Z,65.10
2019-01-12T07:00:21.678Z,64.80
2019-01-12T07:03:12.592Z,64.40
2019-01-12T07:06:12.936Z,64.80
2019-01-12T07:09:15.269Z,64.50
2019-01-12T07:12:06.204Z,63.70
2019-01-12T07:14:48.155Z,63.90
2019-01-12T07:17:39.117Z,64.20
2019-01-12T07:20:22.508Z,64.00
2019-01-12T07:23:07.441Z,65.00
2019-01-12T07:51:09.719Z,67.00
2019-01-12T07:54:00.606Z,66.30
2019-01-12T07:56:42.294Z,66.30
2019-01-12T07:59:33.206Z,66.30
2019-01-12T08:02:15.180Z,66.10
2019-01-12T08:05:06.911Z,65.60
2019-01-12T08:07:55.026Z,65.10
2019-01-12T08:10:46.061Z,64.90
2019-01-12T08:13:48.233Z,64.30
2019-01-12T08:16:39.186Z,63.90
2019-01-12T08:19:20.767Z,63.50
2019-01-12T08:22:02.572Z,62.80
2019-01-12T08:24:43.864Z,62.60
2019-01-12T08:27:25.720Z,62.40
2019-01-12T08:30:18.178Z,62.40
2019-01-12T08:32:59.766Z,62.70
2019-01-12T08:35:50.717Z,63.30
2019-01-12T08:38:32.614Z,63.60
2019-01-12T08:41:23.700Z,63.10
2019-01-12T08:47:35.646Z,62.50
2019-01-12T08:50:11.585Z,62.10
2019-01-12T08:52:53.268Z,61.70
2019-01-12T08:55:44.238Z,62.00
2019-01-12T08:58:26.109Z,61.50
2019-01-12T09:01:07.726Z,61.10
2019-01-12T09:03:58.647Z,60.80
2019-01-12T09:06:40.562Z,60.60
2019-01-12T09:09:34.138Z,60.20
2019-01-12T09:12:16.593Z,59.80
2019-01-12T09:15:08.413Z,59.50
2019-01-12T09:17:50.315Z,59.40
2019-01-12T09:20:32.119Z,59.20
2019-01-12T09:23:13.777Z,58.40
2019-01-12T09:26:05.051Z,58.50
2019-01-12T09:28:46.595Z,58.80
2019-01-12T09:31:38.265Z,59.90
2019-01-12T09:34:20.152Z,59.80
2019-01-12T09:37:11.126Z,60.10
2019-01-12T09:39:53.156Z,60.30
2019-01-12T09:42:44.557Z,60.60
2019-01-12T09:45:27.998Z,60.60
2019-01-12T09:48:11.714Z,61.10
2019-01-12T09:50:53.506Z,61.20
2019-01-12T09:53:44.525Z,61.20
2019-01-12T09:56:26.344Z,61.20
2019-01-12T09:59:22.326Z,60.60
2019-01-12T10:02:05.951Z,60.00
2019-01-12T10:04:49.323Z,60.40
2019-01-12T10:07:34.600Z,61.80
2019-01-12T10:10:26.378Z,62.30
2019-01-12T10:13:11.772Z,62.60
2019-01-12T10:16:04.374Z,63.30
2019-01-12T10:18:57.868Z,62.90
2019-01-12T10:21:42.276Z,62.90
2019-01-12T10:24:48.556Z,62.50
2019-01-12T10:27:30.421Z,61.70
2019-01-12T10:30:29.157Z,61.80
2019-01-12T10:33:10.722Z,60.90
2019-01-12T10:36:01.714Z,62.00
2019-01-12T10:38:44.942Z,62.80
2019-01-12T10:41:36.032Z,63.60
2019-01-12T10:44:17.364Z,63.00
2019-01-12T10:46:58.786Z,63.10
2019-01-12T10:49:49.718Z,63.60
2019-01-12T10:52:32.060Z,63.00
2019-01-12T10:55:23.033Z,62.60
2019-01-12T10:58:08.076Z,63.50
2019-01-12T11:00:59.005Z,63.80
2019-01-12T11:03:42.471Z,63.40
2019-01-12T11:06:33.639Z,62.20
2019-01-12T11:09:15.914Z,62.50
2019-01-12T11:12:06.874Z,62.00
2019-01-12T11:14:49.464Z,61.60
2019-01-12T11:17:40.457Z,61.80
2019-01-12T11:20:23.637Z,61.50
2019-01-12T11:23:05.674Z,61.00
2019-01-12T11:25:47.050Z,59.30
2019-01-12T11:28:29.173Z,58.70
2019-01-12T11:31:20.156Z,59.80
2019-01-12T11:34:03.626Z,60.30
2019-01-12T11:36:54.539Z,59.70
2019-01-12T11:39:38.470Z,59.10
2019-01-12T11:42:29.396Z,60.10
2019-01-12T11:45:11.286Z,61.00
2019-01-12T11:48:02.244Z,62.00
2019-01-12T11:50:45.500Z,61.40
2019-01-12T11:53:28.935Z,61.10
2019-01-12T11:56:19.849Z,60.90
2019-01-12T12:01:51.416Z,61.90
2019-01-12T12:04:34.719Z,61.30
2019-01-12T12:07:25.627Z,60.90
2019-01-12T12:10:07.921Z,61.50
2019-01-12T12:12:58.880Z,61.50
2019-01-12T12:15:42.178Z,60.50
2019-01-12T12:18:14.062Z,60.60
2019-01-12T12:21:05.081Z,59.10
2019-01-12T12:23:46.900Z,59.20
2019-01-12T12:26:37.824Z,59.60
2019-01-12T12:29:19.346Z,59.30
2019-01-12T12:32:10.263Z,57.90
2019-01-12T12:34:53.698Z,57.40
2019-01-12T12:37:25.701Z,58.30
2019-01-12T12:40:09.738Z,58.70
2019-01-12T12:43:00.659Z,58.80
2019-01-12T12:45:42.505Z,59.30
2019-01-12T12:48:33.424Z,57.60
2019-01-12T12:51:15.353Z,57.60
2019-01-12T12:54:06.268Z,58.40
2019-01-12T12:56:48.155Z,58.90
2019-01-12T12:59:39.073Z,58.50
2019-01-12T13:02:10.940Z,58.50
2019-01-12T13:05:01.865Z,58.30
2019-01-12T13:07:43.655Z,58.10
2019-01-12T13:10:34.635Z,58.10
2019-01-12T13:13:17.508Z,58.00
2019-01-12T13:16:01.251Z,57.90
2019-01-12T13:18:52.175Z,58.00
2019-01-12T13:21:39.091Z,57.40
2019-01-12T13:24:21.215Z,57.30
2019-01-12T13:27:03.965Z,58.40
2019-01-12T13:29:55.932Z,58.80
2019-01-12T13:32:43.281Z,59.40
2019-01-12T13:35:35.203Z,59.60
2019-01-12T13:38:18.724Z,59.40
2019-01-12T13:41:40.200Z,59.40
2019-01-12T13:44:22.791Z,59.00
2019-01-12T13:47:20.816Z,59.40
2019-01-12T13:50:19.321Z,60.60
2019-01-12T13:53:10.270Z,60.90
2019-01-12T13:55:53.516Z,61.20
2019-01-12T13:58:56.107Z,61.30
2019-01-12T14:01:42.148Z,60.60
2019-01-12T14:04:34.715Z,61.50
2019-01-12T14:07:16.536Z,62.10
2019-01-12T14:10:09.115Z,62.30
2019-01-12T14:12:52.035Z,62.80
2019-01-12T14:15:44.328Z,62.60
2019-01-12T14:18:29.351Z,62.60
2019-01-12T14:21:39.880Z,63.70
2019-01-12T14:24:21.860Z,64.30
2019-01-12T14:27:13.013Z,64.60
2019-01-12T14:29:56.064Z,64.60
2019-01-12T14:32:48.310Z,64.30
2019-01-12T14:35:39.240Z,64.80
2019-01-12T14:38:30.956Z,65.40
2019-01-12T14:41:13.842Z,65.70
2019-01-12T14:44:07.094Z,65.50
2019-01-12T14:46:49.099Z,65.30
2019-01-12T14:49:40.114Z,64.90
2019-01-12T14:52:23.416Z,64.40
2019-01-12T14:55:15.875Z,65.30
2019-01-12T14:58:02.762Z,65.20
2019-01-12T15:00:51.959Z,64.60
2019-01-12T15:03:33.978Z,64.40
2019-01-12T15:06:24.873Z,64.10
2019-01-12T15:09:08.844Z,64.40
2019-01-12T15:12:00.760Z,63.40
2019-01-12T15:14:44.800Z,64.10
2019-01-12T15:17:35.788Z,64.30
2019-01-12T15:20:19.427Z,64.40
2019-01-12T15:23:10.412Z,64.30
2019-01-12T15:25:51.690Z,64.70
2019-01-12T15:28:43.494Z,65.00
2019-01-12T15:31:26.675Z,64.50
2019-01-12T15:34:08.414Z,64.60
2019-01-12T15:36:50.236Z,65.40
2019-01-12T15:39:31.712Z,65.80
2019-01-12T15:42:23.330Z,66.90
2019-01-12T15:45:06.451Z,67.20
2019-01-12T15:47:57.414Z,67.30
2019-01-12T15:50:39.337Z,67.70
2019-01-12T15:56:31.106Z,67.90
2019-01-12T15:59:13.197Z,67.50
2019-01-12T16:02:04.357Z,66.90
2019-01-12T16:04:47.803Z,66.10
2019-01-12T16:07:39.359Z,66.00
2019-01-12T16:10:21.634Z,65.50
2019-01-12T16:13:12.611Z,64.70
2019-01-12T16:15:54.329Z,64.80
2019-01-12T16:18:35.908Z,65.20
2019-01-12T16:21:26.844Z,64.90
2019-01-12T16:24:08.699Z,64.60
2019-01-12T16:26:59.647Z,64.10
2019-01-12T16:29:43.154Z,63.10
2019-01-12T16:32:34.600Z,64.10
2019-01-12T16:35:23.092Z,65.00
2019-01-12T16:37:55.223Z,64.70
2019-01-12T16:40:37.045Z,65.60
2019-01-12T16:43:27.984Z,66.50
2019-01-12T16:46:09.972Z,66.70
2019-01-12T16:49:02.195Z,67.00
2019-01-12T16:51:44.939Z,67.00
2019-01-12T16:54:27.053Z,66.60
2019-01-12T16:57:18.049Z,66.30
2019-01-12T17:00:01.329Z,66.90
2019-01-12T17:02:52.486Z,66.40
2019-01-12T17:12:28.705Z,65.70
2019-01-12T17:19:07.764Z,66.20
2019-01-12T17:21:53.399Z,66.40
2019-01-12T17:24:41.658Z,66.50
2019-01-12T17:35:04.531Z,64.90
2019-01-12T17:38:06.426Z,65.20
2019-01-12T17:40:50.257Z,65.30
2019-01-12T17:43:42.408Z,65.40
2019-01-12T17:46:46.054Z,64.90
2019-01-12T17:52:47.066Z,66.40
2019-01-12T17:55:30.469Z,66.80
2019-01-12T18:01:17.881Z,66.70
2019-01-12T18:04:11.971Z,66.10
2019-01-12T18:06:54.150Z,66.00
2019-01-12T18:09:45.176Z,65.60
2019-01-12T18:12:33.302Z,66.30
2019-01-12T18:15:24.454Z,66.40
2019-01-12T18:18:09.515Z,65.60
2019-01-12T18:21:00.507Z,65.40
2019-01-12T18:23:43.800Z,65.80
2019-01-12T18:26:25.999Z,65.10
2019-01-12T18:29:09.359Z,65.60
2019-01-12T18:31:53.029Z,65.60
2019-01-12T18:34:44.112Z,66.00
2019-01-12T18:37:26.173Z,65.80
2019-01-12T18:40:17.592Z,66.00
2019-01-12T18:43:00.855Z,65.70
2019-01-12T18:45:52.018Z,65.70
2019-01-12T18:48:33.946Z,65.80
2019-01-12T18:51:17.044Z,65.80
2019-01-12T18:57:17.305Z,64.90
2019-01-12T19:22:29.353Z,65.30
2019-01-12T19:25:13.819Z,66.00
2019-01-12T19:27:55.368Z,67.30
2019-01-12T19:30:56.400Z,67.60
2019-01-12T19:34:04.053Z,67.90
2019-01-12T19:36:51.387Z,67.70
2019-01-12T19:39:43.256Z,68.30
2019-01-12T19:42:25.304Z,68.00
2019-01-12T19:45:17.832Z,67.70
2019-01-12T19:48:04.709Z,68.30
2019-01-12T19:50:58.279Z,68.40
2019-01-12T19:53:49.772Z,68.50
2019-01-12T19:56:59.788Z,68.50
2019-01-12T19:59:44.341Z,69.20
2019-01-12T20:02:35.401Z,69.80
2019-01-12T20:05:22.569Z,69.80
2019-01-12T20:08:05.335Z,69.30
2019-01-12T20:10:56.566Z,68.70
2019-01-12T20:13:43.937Z,69.20
2019-01-12T20:16:35.248Z,69.90
2019-01-12T20:19:20.731Z,69.20
2019-01-12T20:22:31.190Z,69.10
2019-01-12T20:25:39.983Z,69.50
2019-01-12T20:38:39.949Z,69.10
2019-01-12T20:41:31.711Z,69.20
2019-01-12T20:44:29.467Z,69.70
2019-01-12T20:48:17.668Z,69.60
2019-01-12T20:51:24.939Z,69.80
2019-01-12T20:54:54.241Z,70.20
2019-01-12T20:57:57.501Z,69.70
2019-01-12T21:01:14.810Z,69.80
2019-01-12T21:04:44.105Z,69.70
2019-01-12T21:07:47.644Z,70.10
2019-01-12T21:10:52.747Z,70.00
2019-01-12T21:14:05.403Z,71.20
2019-01-12T21:16:52.059Z,71.40
2019-01-12T21:19:48.341Z,71.00
2019-01-12T21:22:37.900Z,70.80
2019-01-12T21:25:50.901Z,70.80
2019-01-12T21:28:34.470Z,70.10
2019-01-12T21:31:31.901Z,70.20
2019-01-12T21:34:14.055Z,70.20
2019-01-12T21:36:59.074Z,70.90
2019-01-12T21:39:40.959Z,71.20
2019-01-12T21:42:22.765Z,71.40
2019-01-12T22:23:46.830Z,73.20
2019-01-12T22:26:28.364Z,72.90
2019-01-12T22:29:19.527Z,72.60
2019-01-12T22:32:06.777Z,72.70
2019-01-12T22:34:57.853Z,72.60
2019-01-12T22:38:24.257Z,72.40
2019-01-12T22:40:58.169Z,72.80
2019-01-12T22:43:46.499Z,72.60
2019-01-12T22:50:06.325Z,73.00
2019-01-12T22:52:48.374Z,72.70
2019-01-12T22:59:56.812Z,73.60
2019-01-12T23:03:22.117Z,72.90
2019-01-12T23:06:05.260Z,72.70
2019-01-12T23:08:56.328Z,72.30
2019-01-12T23:11:40.987Z,72.30
2019-01-12T23:14:33.068Z,72.20
2019-01-12T23:17:36.429Z,72.20
2019-01-12T23:20:38.671Z,71.80
2019-01-12T23:23:32.820Z,72.30
2019-01-12T23:26:21.172Z,72.70
2019-01-12T23:29:06.256Z,73.30
2019-01-12T23:31:58.658Z,73.20
2019-01-12T23:34:50.049Z,72.90
2019-01-12T23:40:38.657Z,72.90
2019-01-12T23:43:29.703Z,73.30
2019-01-12T23:46:13.172Z,73.60
2019-01-12T23:48:56.634Z,73.60
2019-01-12T23:58:24.143Z,72.40
